createdAt,value
2018-07-05T00:02:19.600Z,62.00
2018-07-05T00:04:58.585Z,61.70
2018-07-05T00:07:37.462Z,63.10
2018-07-05T00:10:16.384Z,62.90
2018-07-05T00:12:55.345Z,62.50
2018-07-05T00:15:34.246Z,62.60
2018-07-05T00:18:13.180Z,62.80
2018-07-05T00:20:52.144Z,63.70
2018-07-05T00:23:31.230Z,64.30
2018-07-05T00:26:10.221Z,64.30
2018-07-05T00:28:49.209Z,64.10
2018-07-05T00:31:27.996Z,63.20
2018-07-05T00:34:07.130Z,63.00
2018-07-05T00:36:46.148Z,63.00
2018-07-05T00:39:25.165Z,63.00
2018-07-05T00:42:04.226Z,63.00
2018-07-05T00:44:43.075Z,63.00
2018-07-05T00:47:22.162Z,63.00
2018-07-05T00:50:01.202Z,62.50
2018-07-05T00:52:40.073Z,60.50
2018-07-05T00:55:19.309Z,60.50
2018-07-05T00:57:58.212Z,60.50
2018-07-05T01:00:37.098Z,59.40
2018-07-05T01:03:16.007Z,58.90
2018-07-05T01:05:54.895Z,59.20
2018-07-05T01:08:34.018Z,59.50
2018-07-05T01:11:13.112Z,60.90
2018-07-05T01:13:52.000Z,61.90
2018-07-05T01:16:30.994Z,62.60
2018-07-05T01:19:09.863Z,62.30
2018-07-05T01:21:48.796Z,63.00
2018-07-05T01:24:27.780Z,63.30
2018-07-05T01:27:06.702Z,64.20
2018-07-05T01:29:45.774Z,64.80
2018-07-05T01:32:24.624Z,64.20
2018-07-05T01:35:03.529Z,64.30
2018-07-05T01:37:42.440Z,64.50
2018-07-05T01:40:21.376Z,64.60
2018-07-05T01:43:00.346Z,64.80
2018-07-05T01:45:39.398Z,64.90
2018-07-05T01:48:18.303Z,65.00
2018-07-05T01:50:57.302Z,65.40
2018-07-05T01:53:36.270Z,65.50
2018-07-05T01:56:15.354Z,65.40
2018-07-05T01:58:54.176Z,65.80
2018-07-05T02:01:33.204Z,65.60
2018-07-05T02:04:12.136Z,66.00
2018-07-05T02:06:51.068Z,66.40
2018-07-05T02:09:30.107Z,66.00
2018-07-05T02:12:09.139Z,66.00
2018-07-05T02:14:48.097Z,66.10
2018-07-05T02:17:27.122Z,66.30
2018-07-05T02:20:06.014Z,66.40
2018-07-05T02:22:45.012Z,68.30
2018-07-05T02:25:23.892Z,68.50
2018-07-05T02:28:02.826Z,67.20
2018-07-05T02:30:41.991Z,66.80
2018-07-05T02:33:20.914Z,66.70
2018-07-05T02:35:59.806Z,66.80
2018-07-05T02:38:38.741Z,66.70
2018-07-05T02:41:17.722Z,66.50
2018-07-05T02:43:56.538Z,66.50
2018-07-05T02:46:35.580Z,66.00
2018-07-05T02:49:14.433Z,65.90
2018-07-05T02:51:53.352Z,65.70
2018-07-05T02:54:32.378Z,66.00
2018-07-05T02:57:11.567Z,66.50
2018-07-05T02:59:50.542Z,67.00
2018-07-05T03:02:29.496Z,66.60
2018-07-05T03:05:08.472Z,67.50
2018-07-05T03:07:47.462Z,68.00
2018-07-05T03:10:26.457Z,68.10
2018-07-05T03:13:05.450Z,68.50
2018-07-05T03:15:44.378Z,68.50
2018-07-05T03:18:23.276Z,69.00
2018-07-05T03:21:02.245Z,69.30
2018-07-05T03:23:41.213Z,68.80
2018-07-05T03:26:20.158Z,68.30
2018-07-05T03:28:59.143Z,68.60
2018-07-05T03:31:38.118Z,68.70
2018-07-05T03:34:17.078Z,68.70
2018-07-05T03:36:56.105Z,69.10
2018-07-05T03:39:35.106Z,69.20
2018-07-05T03:42:13.981Z,69.50
2018-07-05T03:44:53.086Z,69.50
2018-07-05T03:47:31.987Z,69.30
2018-07-05T03:50:10.890Z,69.10
2018-07-05T03:52:49.902Z,69.20
2018-07-05T03:55:28.812Z,69.70
2018-07-05T03:58:07.896Z,69.50
2018-07-05T04:00:46.771Z,69.40
2018-07-05T04:03:25.783Z,69.30
2018-07-05T04:06:04.658Z,69.40
2018-07-05T04:08:43.704Z,69.60
2018-07-05T04:11:22.702Z,71.10
2018-07-05T04:14:01.597Z,70.20
2018-07-05T04:16:40.586Z,70.10
2018-07-05T04:19:19.590Z,69.90
2018-07-05T04:21:58.472Z,70.00
2018-07-05T04:24:37.527Z,70.00
2018-07-05T04:27:16.534Z,70.00
2018-07-05T04:29:55.410Z,70.40
2018-07-05T04:32:34.488Z,70.10
2018-07-05T04:35:13.453Z,69.90
2018-07-05T04:37:52.543Z,69.60
2018-07-05T04:40:31.497Z,69.50
2018-07-05T04:43:10.381Z,70.40
2018-07-05T04:45:49.317Z,70.30
2018-07-05T04:48:28.334Z,70.10
2018-07-05T04:51:07.256Z,70.00
2018-07-05T04:53:46.168Z,69.50
2018-07-05T04:56:25.122Z,68.50
2018-07-05T04:59:03.990Z,68.10
2018-07-05T05:01:43.030Z,68.20
2018-07-05T05:04:22.115Z,69.00
2018-07-05T05:07:01.274Z,68.60
2018-07-05T05:09:40.339Z,68.00
2018-07-05T05:12:19.289Z,66.80
2018-07-05T05:14:58.300Z,65.40
2018-07-05T05:20:10.313Z,63.80
2018-07-05T05:22:49.329Z,64.00
2018-07-05T05:25:28.244Z,65.20
2018-07-05T05:28:07.314Z,65.20
2018-07-05T05:30:46.313Z,65.20
2018-07-05T05:33:25.228Z,65.90
2018-07-05T05:36:04.219Z,66.20
2018-07-05T05:38:43.197Z,66.90
2018-07-05T05:41:22.114Z,65.80
2018-07-05T05:44:01.032Z,67.00
2018-07-05T05:46:40.062Z,67.50
2018-07-05T05:49:19.006Z,67.30
2018-07-05T05:51:57.998Z,66.60
2018-07-05T05:54:36.918Z,65.80
2018-07-05T05:57:15.902Z,60.00
2018-07-05T05:59:54.968Z,60.00
2018-07-05T06:02:33.998Z,62.00
2018-07-05T06:05:12.980Z,59.50
2018-07-05T06:07:52.082Z,60.00
2018-07-05T06:10:31.261Z,62.30
2018-07-05T06:13:10.164Z,62.60
2018-07-05T06:15:49.025Z,62.30
2018-07-05T06:18:28.034Z,63.40
2018-07-05T06:21:06.885Z,62.90
2018-07-05T06:23:45.870Z,63.60
2018-07-05T06:26:24.746Z,63.80
2018-07-05T06:29:03.749Z,63.80
2018-07-05T06:31:43.762Z,62.20
2018-07-05T06:34:22.862Z,63.20
2018-07-05T06:37:01.722Z,62.50
2018-07-05T06:39:40.727Z,60.20
2018-07-05T06:42:19.573Z,58.40
2018-07-05T06:44:58.482Z,55.30
2018-07-05T06:47:37.569Z,53.00
2018-07-05T06:50:16.520Z,53.50
2018-07-05T06:52:55.498Z,52.50
2018-07-05T06:55:34.422Z,52.30
2018-07-05T06:58:13.423Z,51.80
2018-07-05T07:00:52.312Z,48.70
2018-07-05T07:03:31.190Z,47.90
2018-07-05T07:06:10.134Z,46.20
2018-07-05T07:08:49.105Z,45.90
2018-07-05T07:11:28.039Z,44.90
2018-07-05T07:14:06.982Z,43.70
2018-07-05T07:16:45.944Z,43.30
2018-07-05T07:19:24.786Z,43.60
2018-07-05T07:22:03.748Z,44.20
2018-07-05T07:24:42.834Z,42.60
2018-07-05T07:27:21.778Z,40.60
2018-07-05T07:30:00.887Z,39.80
2018-07-05T07:32:39.796Z,36.70
2018-07-05T07:35:18.854Z,38.50
2018-07-05T07:37:57.782Z,38.40
2018-07-05T07:40:36.714Z,36.50
2018-07-05T07:43:03.230Z,36.80
2018-07-05T07:45:29.851Z,36.10
2018-07-05T07:47:56.332Z,35.00
2018-07-05T07:50:22.874Z,38.30
2018-07-05T07:52:49.406Z,35.90
2018-07-05T07:55:15.941Z,36.50
2018-07-05T07:57:42.464Z,39.40
2018-07-05T08:00:09.034Z,39.40
2018-07-05T08:02:35.566Z,35.60
2018-07-05T08:05:02.094Z,40.60
2018-07-05T08:07:28.634Z,36.60
2018-07-05T08:09:55.181Z,34.70
2018-07-05T08:12:21.745Z,35.40
2018-07-05T08:14:48.248Z,36.10
2018-07-05T08:17:14.831Z,33.30
2018-07-05T08:19:41.340Z,34.90
2018-07-05T08:22:07.865Z,33.00
2018-07-05T08:24:34.395Z,35.90
2018-07-05T08:27:02.994Z,34.60
2018-07-05T08:29:29.542Z,34.30
2018-07-05T08:31:56.077Z,37.30
2018-07-05T08:34:22.600Z,33.90
2018-07-05T08:36:49.115Z,37.30
2018-07-05T08:39:15.631Z,37.60
2018-07-05T08:41:42.152Z,38.00
2018-07-05T08:44:08.665Z,39.40
2018-07-05T08:46:35.178Z,37.10
2018-07-05T08:49:01.684Z,38.70
2018-07-05T08:51:28.218Z,38.00
2018-07-05T08:53:54.733Z,35.60
2018-07-05T08:56:21.257Z,35.30
2018-07-05T08:58:47.798Z,35.40
2018-07-05T09:01:14.317Z,35.10
2018-07-05T09:03:40.845Z,36.20
2018-07-05T09:06:07.371Z,38.40
2018-07-05T09:08:33.946Z,39.90
2018-07-05T09:11:00.458Z,38.10
2018-07-05T09:13:27.003Z,37.80
2018-07-05T09:15:53.526Z,36.90
2018-07-05T09:18:20.397Z,37.40
2018-07-05T09:20:46.969Z,38.30
2018-07-05T09:23:13.543Z,40.70
2018-07-05T09:25:40.070Z,37.20
2018-07-05T09:28:06.602Z,37.60
2018-07-05T09:30:33.137Z,40.80
2018-07-05T09:32:59.711Z,38.10
2018-07-05T09:35:26.288Z,36.50
2018-07-05T09:37:52.826Z,37.50
2018-07-05T09:40:19.340Z,37.50
2018-07-05T09:42:45.859Z,37.20
2018-07-05T09:45:12.626Z,39.90
2018-07-05T09:47:39.177Z,36.70
2018-07-05T09:50:05.722Z,33.80
2018-07-05T09:52:32.380Z,34.50
2018-07-05T09:54:58.899Z,36.70
2018-07-05T09:57:25.462Z,32.10
2018-07-05T09:59:52.086Z,30.30
2018-07-05T10:02:18.594Z,28.10
2018-07-05T10:04:45.185Z,28.70
2018-07-05T10:07:11.734Z,31.60
2018-07-05T10:09:38.278Z,28.80
2018-07-05T10:12:04.808Z,28.90
2018-07-05T10:14:31.374Z,25.60
2018-07-05T10:16:57.922Z,27.20
2018-07-05T10:19:24.560Z,25.40
2018-07-05T10:21:51.091Z,26.00
2018-07-05T10:24:17.677Z,30.60
2018-07-05T10:26:44.243Z,29.20
2018-07-05T10:29:23.225Z,28.50
2018-07-05T10:32:03.122Z,28.50
2018-07-05T10:34:29.650Z,30.30
2018-07-05T10:36:56.177Z,29.90
2018-07-05T10:39:22.741Z,29.80
2018-07-05T10:42:01.707Z,31.40
2018-07-05T10:44:40.587Z,31.10
2018-07-05T10:47:19.463Z,30.20
2018-07-05T10:49:58.346Z,26.30
2018-07-05T10:52:37.331Z,27.10
2018-07-05T10:55:16.423Z,25.00
2018-07-05T10:57:55.270Z,25.90
2018-07-05T11:00:34.188Z,28.20
2018-07-05T11:03:13.096Z,25.50
2018-07-05T11:05:52.093Z,25.50
2018-07-05T11:08:31.002Z,26.10
2018-07-05T11:11:09.854Z,24.30
2018-07-05T11:13:48.755Z,24.10
2018-07-05T11:16:27.906Z,24.20
2018-07-05T11:19:06.950Z,27.30
2018-07-05T11:21:45.908Z,25.20
2018-07-05T11:24:24.838Z,27.20
2018-07-05T11:27:03.790Z,25.30
2018-07-05T11:29:42.670Z,24.10
2018-07-05T11:32:21.846Z,24.70
2018-07-05T11:35:00.851Z,25.20
2018-07-05T11:37:40.017Z,26.20
2018-07-05T11:40:18.988Z,26.30
2018-07-05T11:42:58.548Z,25.60
2018-07-05T11:45:37.569Z,24.30
2018-07-05T11:48:16.572Z,25.40
2018-07-05T11:50:55.522Z,24.60
2018-07-05T11:53:34.529Z,25.30
2018-07-05T11:56:13.587Z,27.70
2018-07-05T11:58:52.508Z,26.90
2018-07-05T12:01:31.512Z,27.80
2018-07-05T12:04:10.455Z,29.90
2018-07-05T12:06:49.510Z,30.70
2018-07-05T12:09:28.402Z,29.00
2018-07-05T12:12:07.309Z,31.60
2018-07-05T12:14:46.263Z,31.30
2018-07-05T12:17:25.274Z,32.70
2018-07-05T12:20:04.366Z,30.60
2018-07-05T12:22:43.357Z,31.20
2018-07-05T12:25:22.355Z,32.10
2018-07-05T12:28:01.242Z,32.60
2018-07-05T12:30:40.466Z,31.90
2018-07-05T12:33:19.530Z,32.60
2018-07-05T12:35:58.563Z,30.10
2018-07-05T12:38:37.542Z,31.90
2018-07-05T12:41:16.608Z,33.10
2018-07-05T12:43:55.705Z,30.90
2018-07-05T12:46:34.737Z,30.50
2018-07-05T12:49:13.605Z,30.50
2018-07-05T12:51:52.620Z,31.80
2018-07-05T12:54:31.574Z,33.50
2018-07-05T12:57:11.502Z,34.60
2018-07-05T12:59:50.521Z,31.90
2018-07-05T13:02:31.854Z,32.00
2018-07-05T13:05:10.761Z,34.40
2018-07-05T13:07:49.685Z,33.40
2018-07-05T13:10:28.857Z,31.10
2018-07-05T13:13:08.670Z,30.90
2018-07-05T13:15:47.697Z,31.00
2018-07-05T13:18:26.702Z,27.90
2018-07-05T13:21:05.732Z,27.30
2018-07-05T13:23:44.672Z,27.40
2018-07-05T13:26:23.653Z,27.80
2018-07-05T13:29:02.734Z,27.00
2018-07-05T13:31:41.633Z,26.90
2018-07-05T13:34:20.760Z,27.80
2018-07-05T13:36:59.746Z,27.20
2018-07-05T13:39:38.835Z,27.70
2018-07-05T13:42:17.888Z,28.80
2018-07-05T13:44:56.734Z,29.00
2018-07-05T13:47:35.726Z,30.70
2018-07-05T13:50:14.822Z,29.70
2018-07-05T13:52:53.754Z,28.30
2018-07-05T13:55:32.709Z,29.70
2018-07-05T13:58:11.683Z,33.00
2018-07-05T14:00:50.624Z,31.20
2018-07-05T14:03:29.490Z,33.20
2018-07-05T14:06:08.476Z,31.20
2018-07-05T14:08:47.567Z,30.00
2018-07-05T14:11:26.434Z,28.30
2018-07-05T14:14:05.353Z,29.60
2018-07-05T14:16:44.366Z,28.70
2018-07-05T14:19:23.512Z,27.70
2018-07-05T14:22:02.605Z,28.30
2018-07-05T14:24:41.778Z,27.70
2018-07-05T14:27:20.698Z,27.10
2018-07-05T14:29:59.781Z,28.20
2018-07-05T14:32:38.814Z,27.70
2018-07-05T14:35:17.852Z,26.30
2018-07-05T14:37:56.669Z,27.00
2018-07-05T14:40:35.594Z,27.50
2018-07-05T14:43:14.525Z,29.30
2018-07-05T14:45:53.487Z,28.70
2018-07-05T14:48:32.468Z,28.60
2018-07-05T14:51:11.590Z,30.30
2018-07-05T14:53:50.566Z,30.10
2018-07-05T14:56:29.605Z,29.50
2018-07-05T14:59:08.540Z,32.00
2018-07-05T15:01:47.634Z,31.30
2018-07-05T15:04:26.762Z,31.50
2018-07-05T15:07:05.782Z,31.80
2018-07-05T15:09:44.763Z,31.40
2018-07-05T15:12:23.866Z,32.00
2018-07-05T15:15:02.849Z,32.60
2018-07-05T15:17:41.912Z,29.90
2018-07-05T15:20:20.841Z,30.30
2018-07-05T15:22:59.954Z,30.40
2018-07-05T15:25:38.963Z,31.40
2018-07-05T15:28:17.871Z,32.20
2018-07-05T15:30:56.762Z,33.30
2018-07-05T15:33:35.702Z,34.80
2018-07-05T15:36:14.656Z,33.50
2018-07-05T15:38:53.624Z,34.60
2018-07-05T15:41:32.542Z,35.10
2018-07-05T15:44:11.558Z,35.00
2018-07-05T15:46:50.501Z,37.20
2018-07-05T15:49:29.348Z,37.40
2018-07-05T15:52:08.394Z,37.60
2018-07-05T15:54:47.462Z,35.00
2018-07-05T15:57:27.282Z,35.90
2018-07-05T16:00:06.338Z,37.00
2018-07-05T16:02:45.536Z,37.00
2018-07-05T16:05:24.674Z,36.10
2018-07-05T16:08:03.755Z,35.00
2018-07-05T16:10:42.766Z,35.20
2018-07-05T16:13:21.825Z,34.70
2018-07-05T16:16:00.878Z,35.60
2018-07-05T16:18:39.813Z,35.70
2018-07-05T16:21:19.019Z,35.90
2018-07-05T16:23:58.222Z,35.70
2018-07-05T16:26:37.500Z,36.40
2018-07-05T16:29:16.649Z,36.60
2018-07-05T16:31:55.819Z,38.40
2018-07-05T16:34:34.816Z,38.20
2018-07-05T16:37:13.851Z,38.30
2018-07-05T16:39:52.846Z,39.30
2018-07-05T16:42:32.106Z,39.10
2018-07-05T16:45:11.457Z,39.10
2018-07-05T16:47:50.621Z,39.10
2018-07-05T16:50:29.640Z,39.90
2018-07-05T16:53:08.704Z,40.50
2018-07-05T16:55:47.805Z,41.40
2018-07-05T16:58:26.859Z,43.70
2018-07-05T17:01:06.008Z,43.50
2018-07-05T17:03:45.129Z,43.40
2018-07-05T17:06:24.291Z,43.90
2018-07-05T17:09:04.431Z,44.20
2018-07-05T17:11:43.467Z,45.90
2018-07-05T17:14:22.615Z,45.30
2018-07-05T17:17:01.690Z,44.30
2018-07-05T17:19:40.843Z,44.80
2018-07-05T17:22:19.822Z,43.50
2018-07-05T17:24:58.759Z,43.60
2018-07-05T17:27:37.702Z,44.70
2018-07-05T17:30:16.797Z,44.70
2018-07-05T17:32:55.865Z,43.40
2018-07-05T17:35:35.037Z,43.40
2018-07-05T17:38:13.821Z,40.30
2018-07-05T17:40:52.814Z,39.80
2018-07-05T17:43:31.917Z,39.80
2018-07-05T17:46:11.207Z,40.90
2018-07-05T17:48:50.302Z,41.10
2018-07-05T17:51:29.415Z,41.90
2018-07-05T17:54:08.472Z,43.40
2018-07-05T17:56:47.990Z,44.50
2018-07-05T17:59:27.368Z,45.20
2018-07-05T18:02:06.455Z,46.00
2018-07-05T18:04:45.316Z,46.50
2018-07-05T18:07:24.309Z,47.50
2018-07-05T18:10:03.380Z,50.80
2018-07-05T18:12:42.315Z,50.50
2018-07-05T18:15:21.434Z,52.60
2018-07-05T18:18:00.513Z,51.70
2018-07-05T18:20:39.638Z,51.10
2018-07-05T18:23:18.615Z,51.90
2018-07-05T18:25:57.612Z,52.00
2018-07-05T18:28:36.483Z,51.60
2018-07-05T18:31:15.387Z,51.40
2018-07-05T18:33:54.447Z,52.20
2018-07-05T18:36:33.355Z,52.50
2018-07-05T18:39:12.274Z,53.10
2018-07-05T18:41:51.218Z,53.00
2018-07-05T18:44:30.157Z,53.10
2018-07-05T18:47:09.238Z,53.40
2018-07-05T18:49:48.166Z,53.90
2018-07-05T18:52:27.122Z,53.60
2018-07-05T18:55:06.050Z,54.30
2018-07-05T18:57:44.955Z,55.40
2018-07-05T19:00:23.819Z,56.10
2018-07-05T19:03:02.847Z,57.10
2018-07-05T19:05:41.870Z,59.30
2018-07-05T19:08:20.766Z,61.20
2018-07-05T19:10:59.722Z,62.00
2018-07-05T19:13:38.625Z,63.20
2018-07-05T19:16:17.616Z,64.10
2018-07-05T19:18:56.717Z,65.30
2018-07-05T19:21:36.206Z,66.00
2018-07-05T19:24:15.280Z,67.20
2018-07-05T19:26:54.243Z,67.60
2018-07-05T19:29:33.243Z,69.50
2018-07-05T19:32:12.338Z,69.70
2018-07-05T19:34:51.226Z,69.80
2018-07-05T19:37:30.170Z,71.30
2018-07-05T19:40:09.108Z,71.10
2018-07-05T19:42:48.112Z,72.40
2018-07-05T19:45:27.196Z,72.80
2018-07-05T19:48:06.297Z,76.60
2018-07-05T19:50:45.245Z,77.20
2018-07-05T19:53:24.310Z,78.40
2018-07-05T19:56:03.237Z,79.30
2018-07-05T19:58:42.199Z,80.50
2018-07-05T20:01:21.099Z,81.60
2018-07-05T20:04:00.151Z,82.00
2018-07-05T20:06:39.093Z,82.60
2018-07-05T20:09:18.094Z,81.70
2018-07-05T20:12:02.788Z,82.70
2018-07-05T20:14:41.830Z,83.40
2018-07-05T20:17:20.826Z,83.20
2018-07-05T20:20:00.013Z,84.00
2018-07-05T20:22:39.151Z,84.40
2018-07-05T20:25:18.100Z,83.80
2018-07-05T20:27:57.076Z,84.70
2018-07-05T20:30:36.021Z,83.90
2018-07-05T20:35:49.164Z,84.40
2018-07-05T20:38:27.976Z,84.90
2018-07-05T20:41:07.158Z,85.00
2018-07-05T20:43:46.198Z,84.30
2018-07-05T20:46:25.917Z,84.10
2018-07-05T20:49:05.010Z,84.80
2018-07-05T20:51:43.979Z,83.30
2018-07-05T20:54:22.902Z,84.30
2018-07-05T20:57:01.890Z,82.70
2018-07-05T20:59:40.894Z,82.20
2018-07-05T21:02:19.874Z,81.70
2018-07-05T21:04:58.850Z,81.30
2018-07-05T21:07:37.840Z,81.40
2018-07-05T21:10:16.802Z,80.40
2018-07-05T21:12:55.644Z,80.40
2018-07-05T21:15:34.782Z,80.30
2018-07-05T21:18:13.693Z,81.20
2018-07-05T21:20:52.673Z,79.80
2018-07-05T21:23:31.586Z,79.30
2018-07-05T21:26:10.572Z,79.90
2018-07-05T21:28:49.556Z,80.00
2018-07-05T21:34:01.768Z,80.00
2018-07-05T21:36:40.736Z,79.50
2018-07-05T21:39:19.753Z,80.30
2018-07-05T21:41:58.875Z,80.00
2018-07-05T21:44:37.911Z,80.30
2018-07-05T21:47:16.940Z,79.70
2018-07-05T21:49:56.028Z,78.90
2018-07-05T21:52:35.172Z,80.50
2018-07-05T21:55:14.260Z,80.30
2018-07-05T21:57:53.216Z,80.30
2018-07-05T22:00:32.147Z,81.50
2018-07-05T22:03:11.193Z,82.00
2018-07-05T22:05:50.109Z,82.10
2018-07-05T22:08:29.040Z,82.40
2018-07-05T22:11:08.084Z,83.40
2018-07-05T22:13:47.057Z,84.10
2018-07-05T22:16:26.116Z,84.00
2018-07-05T22:19:10.965Z,84.00
2018-07-05T22:21:55.852Z,84.50
2018-07-05T22:24:40.675Z,83.70
2018-07-05T22:27:25.488Z,83.40
2018-07-05T22:30:10.241Z,83.20
2018-07-05T22:32:49.267Z,84.30
2018-07-05T22:35:28.386Z,84.30
2018-07-05T22:38:07.379Z,84.70
2018-07-05T22:40:46.415Z,84.80
2018-07-05T22:43:25.336Z,84.50
2018-07-05T22:46:04.276Z,85.20
2018-07-05T22:48:43.269Z,84.90
2018-07-05T22:51:22.322Z,84.80
2018-07-05T22:54:01.324Z,84.70
2018-07-05T22:56:40.508Z,83.90
2018-07-05T22:59:19.511Z,83.80
2018-07-05T23:01:58.500Z,84.10
2018-07-05T23:04:37.564Z,84.40
2018-07-05T23:07:16.600Z,85.00
2018-07-05T23:09:55.597Z,85.10
2018-07-05T23:12:34.612Z,85.60
2018-07-05T23:15:13.628Z,86.10
2018-07-05T23:17:52.669Z,86.30
2018-07-05T23:20:31.780Z,86.20
2018-07-05T23:23:10.719Z,87.00
2018-07-05T23:25:49.717Z,87.20
2018-07-05T23:28:28.757Z,87.20
2018-07-05T23:31:07.800Z,87.20
2018-07-05T23:33:46.921Z,86.30
2018-07-05T23:36:25.908Z,86.30
2018-07-05T23:39:05.296Z,86.40
2018-07-05T23:41:44.293Z,86.50
2018-07-05T23:44:23.403Z,86.20
2018-07-05T23:47:02.513Z,86.10
2018-07-05T23:49:41.364Z,85.80
2018-07-05T23:52:20.401Z,86.10
2018-07-05T23:54:59.420Z,85.60
2018-07-05T23:57:38.456Z,85.10
